sensor_id;sensor_type;location;lat;lon;timestamp;temperature;humidity
76607;DHT22;65498;50.916;4.698;2023-04-16T00:00:29;21.70;46.60
76607;DHT22;65498;50.916;4.698;2023-04-16T00:02:56;21.70;46.20
76607;DHT22;65498;50.916;4.698;2023-04-16T00:05:24;21.70;46.40
76607;DHT22;65498;50.916;4.698;2023-04-16T00:07:52;21.70;46.10
76607;DHT22;65498;50.916;4.698;2023-04-16T00:10:20;21.70;46.40
76607;DHT22;65498;50.916;4.698;2023-04-16T00:12:47;21.70;46.40
76607;DHT22;65498;50.916;4.698;2023-04-16T00:15:15;21.70;46.50
76607;DHT22;65498;50.916;4.698;2023-04-16T00:17:42;21.60;46.00
76607;DHT22;65498;50.916;4.698;2023-04-16T00:20:10;21.60;46.00
76607;DHT22;65498;50.916;4.698;2023-04-16T00:22:38;21.60;46.20
76607;DHT22;65498;50.916;4.698;2023-04-16T00:25:05;21.60;46.50
76607;DHT22;65498;50.916;4.698;2023-04-16T00:27:33;21.60;47.10
76607;DHT22;65498;50.916;4.698;2023-04-16T00:30:01;21.70;47.20
76607;DHT22;65498;50.916;4.698;2023-04-16T00:32:29;21.60;46.30
76607;DHT22;65498;50.916;4.698;2023-04-16T00:34:56;21.60;46.30
76607;DHT22;65498;50.916;4.698;2023-04-16T00:37:24;21.60;46.50
76607;DHT22;65498;50.916;4.698;2023-04-16T00:39:52;21.60;47.00
76607;DHT22;65498;50.916;4.698;2023-04-16T00:42:19;21.50;46.30
76607;DHT22;65498;50.916;4.698;2023-04-16T00:44:47;21.60;46.20
76607;DHT22;65498;50.916;4.698;2023-04-16T00:47:15;21.50;46.20
76607;DHT22;65498;50.916;4.698;2023-04-16T00:49:43;21.50;46.00
76607;DHT22;65498;50.916;4.698;2023-04-16T00:52:11;21.50;46.30
76607;DHT22;65498;50.916;4.698;2023-04-16T00:54:39;21.50;46.10
76607;DHT22;65498;50.916;4.698;2023-04-16T00:57:07;21.60;46.50
76607;DHT22;65498;50.916;4.698;2023-04-16T00:59:34;21.60;46.30
76607;DHT22;65498;50.916;4.698;2023-04-16T01:02:02;21.50;46.10
76607;DHT22;65498;50.916;4.698;2023-04-16T01:04:30;21.60;46.30
76607;DHT22;65498;50.916;4.698;2023-04-16T01:07:17;21.50;46.00
76607;DHT22;65498;50.916;4.698;2023-04-16T01:09:45;21.60;46.00
76607;DHT22;65498;50.916;4.698;2023-04-16T01:12:12;21.50;45.80
76607;DHT22;65498;50.916;4.698;2023-04-16T01:14:40;21.50;45.90
76607;DHT22;65498;50.916;4.698;2023-04-16T01:17:07;21.50;45.90
76607;DHT22;65498;50.916;4.698;2023-04-16T01:19:35;21.50;45.90
76607;DHT22;65498;50.916;4.698;2023-04-16T01:22:04;21.50;45.80
76607;DHT22;65498;50.916;4.698;2023-04-16T01:24:32;21.50;46.10
76607;DHT22;65498;50.916;4.698;2023-04-16T01:27:00;21.50;46.10
76607;DHT22;65498;50.916;4.698;2023-04-16T01:29:28;21.50;45.80
76607;DHT22;65498;50.916;4.698;2023-04-16T01:31:55;21.50;46.20
76607;DHT22;65498;50.916;4.698;2023-04-16T01:34:23;21.40;46.20
76607;DHT22;65498;50.916;4.698;2023-04-16T01:36:50;21.40;46.60
76607;DHT22;65498;50.916;4.698;2023-04-16T01:39:18;21.50;46.60
76607;DHT22;65498;50.916;4.698;2023-04-16T01:41:45;21.50;46.20
76607;DHT22;65498;50.916;4.698;2023-04-16T01:44:13;21.50;46.20
76607;DHT22;65498;50.916;4.698;2023-04-16T01:46:41;21.40;46.00
76607;DHT22;65498;50.916;4.698;2023-04-16T01:49:09;21.40;45.90
76607;DHT22;65498;50.916;4.698;2023-04-16T01:51:37;21.40;46.00
76607;DHT22;65498;50.916;4.698;2023-04-16T01:54:04;21.40;46.10
76607;DHT22;65498;50.916;4.698;2023-04-16T01:56:32;21.40;46.10
76607;DHT22;65498;50.916;4.698;2023-04-16T01:58:59;21.40;46.20
76607;DHT22;65498;50.916;4.698;2023-04-16T02:01:27;21.40;46.10
76607;DHT22;65498;50.916;4.698;2023-04-16T02:03:56;21.40;45.80
76607;DHT22;65498;50.916;4.698;2023-04-16T02:06:24;21.40;45.70
76607;DHT22;65498;50.916;4.698;2023-04-16T02:08:51;21.40;45.90
76607;DHT22;65498;50.916;4.698;2023-04-16T02:11:19;21.30;46.10
76607;DHT22;65498;50.916;4.698;2023-04-16T02:13:47;21.30;45.80
76607;DHT22;65498;50.916;4.698;2023-04-16T02:16:14;21.40;46.00
76607;DHT22;65498;50.916;4.698;2023-04-16T02:18:42;21.30;45.80
76607;DHT22;65498;50.916;4.698;2023-04-16T02:21:10;21.30;45.90
76607;DHT22;65498;50.916;4.698;2023-04-16T02:23:37;21.40;45.80
76607;DHT22;65498;50.916;4.698;2023-04-16T02:26:06;21.40;46.00
76607;DHT22;65498;50.916;4.698;2023-04-16T02:28:33;21.40;45.90
76607;DHT22;65498;50.916;4.698;2023-04-16T02:31:01;21.40;45.80
76607;DHT22;65498;50.916;4.698;2023-04-16T02:33:28;21.30;45.80
76607;DHT22;65498;50.916;4.698;2023-04-16T02:35:57;21.30;46.10
76607;DHT22;65498;50.916;4.698;2023-04-16T02:38:24;21.30;46.10
76607;DHT22;65498;50.916;4.698;2023-04-16T02:40:52;21.30;46.00
76607;DHT22;65498;50.916;4.698;2023-04-16T02:43:19;21.30;47.20
76607;DHT22;65498;50.916;4.698;2023-04-16T02:45:47;21.30;46.10
76607;DHT22;65498;50.916;4.698;2023-04-16T02:48:14;21.30;46.00
76607;DHT22;65498;50.916;4.698;2023-04-16T02:50:42;21.20;46.30
76607;DHT22;65498;50.916;4.698;2023-04-16T02:53:09;21.30;46.30
76607;DHT22;65498;50.916;4.698;2023-04-16T02:55:37;21.20;46.10
76607;DHT22;65498;50.916;4.698;2023-04-16T02:58:04;21.30;46.20
76607;DHT22;65498;50.916;4.698;2023-04-16T03:00:32;21.30;46.10
76607;DHT22;65498;50.916;4.698;2023-04-16T03:02:59;21.20;45.90
76607;DHT22;65498;50.916;4.698;2023-04-16T03:05:27;21.20;45.90
76607;DHT22;65498;50.916;4.698;2023-04-16T03:07:54;21.30;46.00
76607;DHT22;65498;50.916;4.698;2023-04-16T03:10:22;21.20;46.20
76607;DHT22;65498;50.916;4.698;2023-04-16T03:12:50;21.30;46.20
76607;DHT22;65498;50.916;4.698;2023-04-16T03:15:17;21.20;45.90
76607;DHT22;65498;50.916;4.698;2023-04-16T03:17:45;21.20;45.90
76607;DHT22;65498;50.916;4.698;2023-04-16T03:20:13;21.20;46.00
76607;DHT22;65498;50.916;4.698;2023-04-16T03:22:42;21.20;45.90
76607;DHT22;65498;50.916;4.698;2023-04-16T03:25:10;21.20;46.10
76607;DHT22;65498;50.916;4.698;2023-04-16T03:27:38;21.20;46.40
76607;DHT22;65498;50.916;4.698;2023-04-16T03:30:07;21.20;45.90
76607;DHT22;65498;50.916;4.698;2023-04-16T03:32:34;21.20;46.10
76607;DHT22;65498;50.916;4.698;2023-04-16T03:35:06;21.20;46.10
76607;DHT22;65498;50.916;4.698;2023-04-16T03:37:34;21.30;47.60
76607;DHT22;65498;50.916;4.698;2023-04-16T03:40:01;21.20;46.40
76607;DHT22;65498;50.916;4.698;2023-04-16T03:42:31;21.20;46.40
76607;DHT22;65498;50.916;4.698;2023-04-16T03:44:59;21.20;46.50
76607;DHT22;65498;50.916;4.698;2023-04-16T03:47:26;21.20;46.40
76607;DHT22;65498;50.916;4.698;2023-04-16T03:49:54;21.20;46.50
76607;DHT22;65498;50.916;4.698;2023-04-16T03:52:21;21.20;46.50
76607;DHT22;65498;50.916;4.698;2023-04-16T03:54:49;21.20;46.50
76607;DHT22;65498;50.916;4.698;2023-04-16T03:57:16;21.20;46.70
76607;DHT22;65498;50.916;4.698;2023-04-16T03:59:44;21.20;46.50
76607;DHT22;65498;50.916;4.698;2023-04-16T04:02:11;21.20;45.80
76607;DHT22;65498;50.916;4.698;2023-04-16T04:04:39;21.10;46.20
76607;DHT22;65498;50.916;4.698;2023-04-16T04:07:06;21.10;46.30
76607;DHT22;65498;50.916;4.698;2023-04-16T04:09:34;21.10;46.30
76607;DHT22;65498;50.916;4.698;2023-04-16T04:12:01;21.20;46.50
76607;DHT22;65498;50.916;4.698;2023-04-16T04:14:29;21.10;46.40
76607;DHT22;65498;50.916;4.698;2023-04-16T04:16:56;21.10;46.50
76607;DHT22;65498;50.916;4.698;2023-04-16T04:19:24;21.10;46.20
76607;DHT22;65498;50.916;4.698;2023-04-16T04:21:51;21.10;46.30
76607;DHT22;65498;50.916;4.698;2023-04-16T04:24:19;21.10;46.40
76607;DHT22;65498;50.916;4.698;2023-04-16T04:26:46;21.10;46.30
76607;DHT22;65498;50.916;4.698;2023-04-16T04:29:14;21.10;46.40
76607;DHT22;65498;50.916;4.698;2023-04-16T04:31:41;21.10;46.20
76607;DHT22;65498;50.916;4.698;2023-04-16T04:34:09;21.20;46.40
76607;DHT22;65498;50.916;4.698;2023-04-16T04:36:36;21.10;46.40
76607;DHT22;65498;50.916;4.698;2023-04-16T04:39:04;21.10;46.60
76607;DHT22;65498;50.916;4.698;2023-04-16T04:41:31;21.10;46.50
76607;DHT22;65498;50.916;4.698;2023-04-16T04:43:59;21.10;46.60
76607;DHT22;65498;50.916;4.698;2023-04-16T04:46:27;21.00;46.40
76607;DHT22;65498;50.916;4.698;2023-04-16T04:48:54;21.00;47.10
76607;DHT22;65498;50.916;4.698;2023-04-16T04:51:22;21.10;46.40
76607;DHT22;65498;50.916;4.698;2023-04-16T04:53:49;21.00;46.80
76607;DHT22;65498;50.916;4.698;2023-04-16T04:56:17;21.00;46.70
76607;DHT22;65498;50.916;4.698;2023-04-16T04:58:44;21.00;46.70
76607;DHT22;65498;50.916;4.698;2023-04-16T05:01:12;21.00;46.80
76607;DHT22;65498;50.916;4.698;2023-04-16T05:03:39;21.00;46.90
76607;DHT22;65498;50.916;4.698;2023-04-16T05:06:07;21.00;46.80
76607;DHT22;65498;50.916;4.698;2023-04-16T05:08:34;21.00;46.80
76607;DHT22;65498;50.916;4.698;2023-04-16T05:11:02;21.00;46.60
76607;DHT22;65498;50.916;4.698;2023-04-16T05:13:30;21.00;46.70
76607;DHT22;65498;50.916;4.698;2023-04-16T05:15:58;21.00;46.60
76607;DHT22;65498;50.916;4.698;2023-04-16T05:18:25;21.00;46.70
76607;DHT22;65498;50.916;4.698;2023-04-16T05:20:53;21.00;46.50
76607;DHT22;65498;50.916;4.698;2023-04-16T05:23:21;21.00;46.60
76607;DHT22;65498;50.916;4.698;2023-04-16T05:25:48;21.00;46.80
76607;DHT22;65498;50.916;4.698;2023-04-16T05:28:16;21.00;46.40
76607;DHT22;65498;50.916;4.698;2023-04-16T05:30:43;21.00;46.50
76607;DHT22;65498;50.916;4.698;2023-04-16T05:33:11;21.00;46.60
76607;DHT22;65498;50.916;4.698;2023-04-16T05:35:38;21.00;46.70
76607;DHT22;65498;50.916;4.698;2023-04-16T05:38:06;21.00;46.40
76607;DHT22;65498;50.916;4.698;2023-04-16T05:40:33;21.00;46.40
76607;DHT22;65498;50.916;4.698;2023-04-16T05:43:01;21.00;46.70
76607;DHT22;65498;50.916;4.698;2023-04-16T05:45:28;21.00;46.50
76607;DHT22;65498;50.916;4.698;2023-04-16T05:47:58;21.00;46.50
76607;DHT22;65498;50.916;4.698;2023-04-16T05:50:25;21.00;46.80
76607;DHT22;65498;50.916;4.698;2023-04-16T05:52:53;21.00;46.70
76607;DHT22;65498;50.916;4.698;2023-04-16T05:55:20;20.90;46.90
76607;DHT22;65498;50.916;4.698;2023-04-16T05:57:48;20.90;47.10
76607;DHT22;65498;50.916;4.698;2023-04-16T06:00:16;20.90;46.90
76607;DHT22;65498;50.916;4.698;2023-04-16T06:02:43;20.90;47.00
76607;DHT22;65498;50.916;4.698;2023-04-16T06:05:11;20.90;46.90
76607;DHT22;65498;50.916;4.698;2023-04-16T06:07:39;20.90;47.30
76607;DHT22;65498;50.916;4.698;2023-04-16T06:10:07;20.90;47.20
76607;DHT22;65498;50.916;4.698;2023-04-16T06:12:34;20.90;47.20
76607;DHT22;65498;50.916;4.698;2023-04-16T06:15:02;20.80;47.20
76607;DHT22;65498;50.916;4.698;2023-04-16T06:17:30;20.90;47.50
76607;DHT22;65498;50.916;4.698;2023-04-16T06:19:57;20.90;47.10
76607;DHT22;65498;50.916;4.698;2023-04-16T06:22:25;20.90;47.00
76607;DHT22;65498;50.916;4.698;2023-04-16T06:24:53;20.90;47.00
76607;DHT22;65498;50.916;4.698;2023-04-16T06:27:20;20.90;47.10
76607;DHT22;65498;50.916;4.698;2023-04-16T06:29:48;20.80;46.90
76607;DHT22;65498;50.916;4.698;2023-04-16T06:32:16;20.90;46.90
76607;DHT22;65498;50.916;4.698;2023-04-16T06:34:44;20.90;47.00
76607;DHT22;65498;50.916;4.698;2023-04-16T06:37:11;20.90;47.00
76607;DHT22;65498;50.916;4.698;2023-04-16T06:39:39;20.90;47.20
76607;DHT22;65498;50.916;4.698;2023-04-16T06:42:06;20.90;47.20
76607;DHT22;65498;50.916;4.698;2023-04-16T06:44:35;20.90;47.20
76607;DHT22;65498;50.916;4.698;2023-04-16T06:47:02;20.90;46.90
76607;DHT22;65498;50.916;4.698;2023-04-16T06:49:30;20.80;47.30
76607;DHT22;65498;50.916;4.698;2023-04-16T06:51:57;20.90;47.00
76607;DHT22;65498;50.916;4.698;2023-04-16T06:54:25;20.90;47.00
76607;DHT22;65498;50.916;4.698;2023-04-16T06:56:52;20.80;47.50
76607;DHT22;65498;50.916;4.698;2023-04-16T06:59:20;20.90;47.10
76607;DHT22;65498;50.916;4.698;2023-04-16T07:01:47;20.80;47.00
76607;DHT22;65498;50.916;4.698;2023-04-16T07:04:15;20.90;46.90
76607;DHT22;65498;50.916;4.698;2023-04-16T07:06:42;20.90;47.00
76607;DHT22;65498;50.916;4.698;2023-04-16T07:09:10;20.80;46.90
76607;DHT22;65498;50.916;4.698;2023-04-16T07:11:38;20.90;47.00
76607;DHT22;65498;50.916;4.698;2023-04-16T07:14:05;20.80;47.10
76607;DHT22;65498;50.916;4.698;2023-04-16T07:16:33;20.90;47.40
76607;DHT22;65498;50.916;4.698;2023-04-16T07:19:03;20.80;47.30
76607;DHT22;65498;50.916;4.698;2023-04-16T07:21:30;20.80;47.30
76607;DHT22;65498;50.916;4.698;2023-04-16T07:23:58;20.80;47.40
76607;DHT22;65498;50.916;4.698;2023-04-16T07:26:26;20.90;48.50
76607;DHT22;65498;50.916;4.698;2023-04-16T07:28:53;20.90;47.40
76607;DHT22;65498;50.916;4.698;2023-04-16T07:31:21;20.80;47.00
76607;DHT22;65498;50.916;4.698;2023-04-16T07:33:48;20.80;47.20
76607;DHT22;65498;50.916;4.698;2023-04-16T07:36:16;20.90;47.20
76607;DHT22;65498;50.916;4.698;2023-04-16T07:38:44;20.80;47.00
76607;DHT22;65498;50.916;4.698;2023-04-16T07:41:12;20.90;47.20
76607;DHT22;65498;50.916;4.698;2023-04-16T07:43:39;20.80;47.30
76607;DHT22;65498;50.916;4.698;2023-04-16T07:46:07;20.80;47.40
76607;DHT22;65498;50.916;4.698;2023-04-16T07:48:34;20.80;47.20
76607;DHT22;65498;50.916;4.698;2023-04-16T07:51:02;20.80;47.30
76607;DHT22;65498;50.916;4.698;2023-04-16T07:53:29;20.80;47.40
76607;DHT22;65498;50.916;4.698;2023-04-16T07:55:57;20.80;47.40
76607;DHT22;65498;50.916;4.698;2023-04-16T07:58:24;20.80;47.10
76607;DHT22;65498;50.916;4.698;2023-04-16T08:00:52;20.70;47.30
76607;DHT22;65498;50.916;4.698;2023-04-16T08:03:20;20.70;46.90
76607;DHT22;65498;50.916;4.698;2023-04-16T08:05:47;20.70;47.30
76607;DHT22;65498;50.916;4.698;2023-04-16T08:08:15;20.80;47.00
76607;DHT22;65498;50.916;4.698;2023-04-16T08:10:42;20.70;47.70
76607;DHT22;65498;50.916;4.698;2023-04-16T08:13:10;20.70;47.20
76607;DHT22;65498;50.916;4.698;2023-04-16T08:15:37;20.80;47.80
76607;DHT22;65498;50.916;4.698;2023-04-16T08:18:05;20.80;47.50
76607;DHT22;65498;50.916;4.698;2023-04-16T08:20:34;20.90;47.60
76607;DHT22;65498;50.916;4.698;2023-04-16T08:23:01;20.90;47.70
76607;DHT22;65498;50.916;4.698;2023-04-16T08:25:29;20.90;48.00
76607;DHT22;65498;50.916;4.698;2023-04-16T08:27:56;20.90;48.10
76607;DHT22;65498;50.916;4.698;2023-04-16T08:30:24;20.90;48.60
76607;DHT22;65498;50.916;4.698;2023-04-16T08:32:52;20.90;49.20
76607;DHT22;65498;50.916;4.698;2023-04-16T08:35:19;21.00;49.10
76607;DHT22;65498;50.916;4.698;2023-04-16T08:37:47;20.90;48.80
76607;DHT22;65498;50.916;4.698;2023-04-16T08:40:14;20.90;49.00
76607;DHT22;65498;50.916;4.698;2023-04-16T08:42:55;21.00;48.80
76607;DHT22;65498;50.916;4.698;2023-04-16T08:45:19;21.00;48.80
76607;DHT22;65498;50.916;4.698;2023-04-16T08:47:48;20.90;49.00
76607;DHT22;65498;50.916;4.698;2023-04-16T08:50:24;20.90;49.10
76607;DHT22;65498;50.916;4.698;2023-04-16T08:53:02;20.90;49.30
76607;DHT22;65498;50.916;4.698;2023-04-16T08:55:44;20.90;49.40
76607;DHT22;65498;50.916;4.698;2023-04-16T08:58:17;20.90;49.60
76607;DHT22;65498;50.916;4.698;2023-04-16T09:00:44;20.90;49.60
76607;DHT22;65498;50.916;4.698;2023-04-16T09:03:12;20.90;49.60
76607;DHT22;65498;50.916;4.698;2023-04-16T09:05:41;20.90;49.70
76607;DHT22;65498;50.916;4.698;2023-04-16T09:08:09;21.00;49.70
76607;DHT22;65498;50.916;4.698;2023-04-16T09:10:36;21.00;49.70
76607;DHT22;65498;50.916;4.698;2023-04-16T09:13:04;21.00;49.90
76607;DHT22;65498;50.916;4.698;2023-04-16T09:15:34;21.00;49.70
76607;DHT22;65498;50.916;4.698;2023-04-16T09:18:02;21.00;49.70
76607;DHT22;65498;50.916;4.698;2023-04-16T09:20:30;21.00;49.70
76607;DHT22;65498;50.916;4.698;2023-04-16T09:22:57;21.00;49.80
76607;DHT22;65498;50.916;4.698;2023-04-16T09:25:25;20.90;49.80
76607;DHT22;65498;50.916;4.698;2023-04-16T09:27:52;20.90;49.80
76607;DHT22;65498;50.916;4.698;2023-04-16T09:30:21;20.90;50.00
76607;DHT22;65498;50.916;4.698;2023-04-16T09:32:50;20.90;50.10
76607;DHT22;65498;50.916;4.698;2023-04-16T09:35:19;21.00;50.40
76607;DHT22;65498;50.916;4.698;2023-04-16T09:37:56;21.00;50.30
76607;DHT22;65498;50.916;4.698;2023-04-16T09:40:26;21.00;50.30
76607;DHT22;65498;50.916;4.698;2023-04-16T09:42:58;21.00;50.20
76607;DHT22;65498;50.916;4.698;2023-04-16T09:45:30;21.00;50.10
76607;DHT22;65498;50.916;4.698;2023-04-16T09:48:03;21.10;50.10
76607;DHT22;65498;50.916;4.698;2023-04-16T09:50:31;21.10;50.30
76607;DHT22;65498;50.916;4.698;2023-04-16T09:53:00;21.10;50.30
76607;DHT22;65498;50.916;4.698;2023-04-16T09:55:29;21.10;50.20
76607;DHT22;65498;50.916;4.698;2023-04-16T09:58:00;21.10;50.60
76607;DHT22;65498;50.916;4.698;2023-04-16T10:00:29;21.20;51.00
76607;DHT22;65498;50.916;4.698;2023-04-16T10:03:06;21.20;49.40
76607;DHT22;65498;50.916;4.698;2023-04-16T10:05:33;21.20;49.90
76607;DHT22;65498;50.916;4.698;2023-04-16T10:08:02;21.20;49.80
76607;DHT22;65498;50.916;4.698;2023-04-16T10:10:31;21.30;50.80
76607;DHT22;65498;50.916;4.698;2023-04-16T10:12:59;21.30;50.10
76607;DHT22;65498;50.916;4.698;2023-04-16T10:15:28;21.20;50.30
76607;DHT22;65498;50.916;4.698;2023-04-16T10:17:56;21.20;50.50
76607;DHT22;65498;50.916;4.698;2023-04-16T10:20:24;21.20;51.00
76607;DHT22;65498;50.916;4.698;2023-04-16T10:22:53;21.20;50.90
76607;DHT22;65498;50.916;4.698;2023-04-16T10:25:22;21.20;50.60
76607;DHT22;65498;50.916;4.698;2023-04-16T10:27:50;21.10;50.30
76607;DHT22;65498;50.916;4.698;2023-04-16T10:30:18;21.20;50.50
76607;DHT22;65498;50.916;4.698;2023-04-16T10:32:47;21.20;51.30
76607;DHT22;65498;50.916;4.698;2023-04-16T10:35:20;21.20;51.90
76607;DHT22;65498;50.916;4.698;2023-04-16T10:37:47;21.30;51.70
76607;DHT22;65498;50.916;4.698;2023-04-16T10:40:26;21.30;51.50
76607;DHT22;65498;50.916;4.698;2023-04-16T10:42:58;21.30;52.80
76607;DHT22;65498;50.916;4.698;2023-04-16T10:45:29;21.20;53.20
76607;DHT22;65498;50.916;4.698;2023-04-16T10:47:58;21.20;53.70
76607;DHT22;65498;50.916;4.698;2023-04-16T10:50:33;21.20;52.60
76607;DHT22;65498;50.916;4.698;2023-04-16T10:53:18;21.20;52.60
76607;DHT22;65498;50.916;4.698;2023-04-16T10:58:36;21.20;54.90
76607;DHT22;65498;50.916;4.698;2023-04-16T11:01:11;21.30;54.10
76607;DHT22;65498;50.916;4.698;2023-04-16T11:03:45;21.30;54.10
76607;DHT22;65498;50.916;4.698;2023-04-16T11:06:14;21.30;53.90
76607;DHT22;65498;50.916;4.698;2023-04-16T11:08:45;21.30;54.60
76607;DHT22;65498;50.916;4.698;2023-04-16T11:11:13;21.40;54.70
76607;DHT22;65498;50.916;4.698;2023-04-16T11:13:43;21.40;55.90
76607;DHT22;65498;50.916;4.698;2023-04-16T11:16:14;21.40;55.30
76607;DHT22;65498;50.916;4.698;2023-04-16T11:18:44;21.40;55.30
76607;DHT22;65498;50.916;4.698;2023-04-16T11:21:12;21.40;55.40
76607;DHT22;65498;50.916;4.698;2023-04-16T11:23:47;21.40;55.60
76607;DHT22;65498;50.916;4.698;2023-04-16T11:26:26;21.40;56.20
76607;DHT22;65498;50.916;4.698;2023-04-16T11:28:55;21.40;56.20
76607;DHT22;65498;50.916;4.698;2023-04-16T11:31:23;21.40;55.70
76607;DHT22;65498;50.916;4.698;2023-04-16T11:33:54;21.30;55.70
76607;DHT22;65498;50.916;4.698;2023-04-16T11:36:22;21.30;55.40
76607;DHT22;65498;50.916;4.698;2023-04-16T11:38:50;21.30;55.50
76607;DHT22;65498;50.916;4.698;2023-04-16T11:41:20;21.30;55.50
76607;DHT22;65498;50.916;4.698;2023-04-16T11:43:48;21.30;55.80
76607;DHT22;65498;50.916;4.698;2023-04-16T11:46:15;21.30;55.80
76607;DHT22;65498;50.916;4.698;2023-04-16T11:48:52;21.30;55.60
76607;DHT22;65498;50.916;4.698;2023-04-16T11:51:22;21.30;55.80
76607;DHT22;65498;50.916;4.698;2023-04-16T11:53:51;21.20;56.00
76607;DHT22;65498;50.916;4.698;2023-04-16T11:56:25;21.30;56.00
76607;DHT22;65498;50.916;4.698;2023-04-16T11:59:12;21.30;55.60
76607;DHT22;65498;50.916;4.698;2023-04-16T12:01:44;21.30;55.40
76607;DHT22;65498;50.916;4.698;2023-04-16T12:04:12;21.30;54.70
76607;DHT22;65498;50.916;4.698;2023-04-16T12:06:40;21.40;54.10
76607;DHT22;65498;50.916;4.698;2023-04-16T12:09:23;21.50;54.40
76607;DHT22;65498;50.916;4.698;2023-04-16T12:11:51;21.40;53.90
76607;DHT22;65498;50.916;4.698;2023-04-16T12:14:19;21.40;55.00
76607;DHT22;65498;50.916;4.698;2023-04-16T12:16:47;21.40;53.90
76607;DHT22;65498;50.916;4.698;2023-04-16T12:19:14;21.40;55.10
76607;DHT22;65498;50.916;4.698;2023-04-16T12:21:44;21.40;54.60
76607;DHT22;65498;50.916;4.698;2023-04-16T12:24:15;21.40;54.70
76607;DHT22;65498;50.916;4.698;2023-04-16T12:26:44;21.40;54.40
76607;DHT22;65498;50.916;4.698;2023-04-16T12:29:16;21.50;54.40
76607;DHT22;65498;50.916;4.698;2023-04-16T12:31:44;21.50;54.50
76607;DHT22;65498;50.916;4.698;2023-04-16T12:34:12;21.50;55.50
76607;DHT22;65498;50.916;4.698;2023-04-16T12:36:44;21.40;55.30
76607;DHT22;65498;50.916;4.698;2023-04-16T12:39:14;21.30;53.80
76607;DHT22;65498;50.916;4.698;2023-04-16T12:41:42;21.20;52.80
76607;DHT22;65498;50.916;4.698;2023-04-16T12:44:14;21.20;50.90
76607;DHT22;65498;50.916;4.698;2023-04-16T12:46:41;21.10;51.10
76607;DHT22;65498;50.916;4.698;2023-04-16T12:49:09;21.20;49.80
76607;DHT22;65498;50.916;4.698;2023-04-16T12:51:38;21.10;49.80
76607;DHT22;65498;50.916;4.698;2023-04-16T12:54:06;21.10;49.10
76607;DHT22;65498;50.916;4.698;2023-04-16T12:56:34;21.20;49.30
76607;DHT22;65498;50.916;4.698;2023-04-16T12:59:02;21.20;50.00
76607;DHT22;65498;50.916;4.698;2023-04-16T13:01:30;21.20;50.10
76607;DHT22;65498;50.916;4.698;2023-04-16T13:03:57;21.10;50.70
76607;DHT22;65498;50.916;4.698;2023-04-16T13:06:25;21.20;51.10
76607;DHT22;65498;50.916;4.698;2023-04-16T13:08:53;21.20;50.90
76607;DHT22;65498;50.916;4.698;2023-04-16T13:11:20;21.20;51.10
76607;DHT22;65498;50.916;4.698;2023-04-16T13:13:48;21.30;51.10
76607;DHT22;65498;50.916;4.698;2023-04-16T13:16:15;21.40;51.30
76607;DHT22;65498;50.916;4.698;2023-04-16T13:18:43;21.40;51.40
76607;DHT22;65498;50.916;4.698;2023-04-16T13:21:10;21.40;51.70
76607;DHT22;65498;50.916;4.698;2023-04-16T13:23:38;21.40;51.80
76607;DHT22;65498;50.916;4.698;2023-04-16T13:26:06;21.30;51.50
76607;DHT22;65498;50.916;4.698;2023-04-16T13:28:34;21.40;51.30
76607;DHT22;65498;50.916;4.698;2023-04-16T13:31:01;21.40;51.40
76607;DHT22;65498;50.916;4.698;2023-04-16T13:33:29;21.40;51.50
76607;DHT22;65498;50.916;4.698;2023-04-16T13:35:56;21.50;51.50
76607;DHT22;65498;50.916;4.698;2023-04-16T13:38:24;21.50;51.70
76607;DHT22;65498;50.916;4.698;2023-04-16T13:40:51;21.50;51.90
76607;DHT22;65498;50.916;4.698;2023-04-16T13:43:19;21.60;51.70
76607;DHT22;65498;50.916;4.698;2023-04-16T13:45:47;21.70;52.10
76607;DHT22;65498;50.916;4.698;2023-04-16T13:48:15;21.70;52.00
76607;DHT22;65498;50.916;4.698;2023-04-16T13:50:43;21.80;51.90
76607;DHT22;65498;50.916;4.698;2023-04-16T13:53:10;21.80;51.80
76607;DHT22;65498;50.916;4.698;2023-04-16T13:55:38;21.80;51.70
76607;DHT22;65498;50.916;4.698;2023-04-16T13:58:06;21.80;52.00
76607;DHT22;65498;50.916;4.698;2023-04-16T14:00:33;21.80;51.90
76607;DHT22;65498;50.916;4.698;2023-04-16T14:03:01;21.90;52.00
76607;DHT22;65498;50.916;4.698;2023-04-16T14:05:30;21.90;52.00
76607;DHT22;65498;50.916;4.698;2023-04-16T14:07:58;21.90;51.90
76607;DHT22;65498;50.916;4.698;2023-04-16T14:10:26;21.90;52.20
76607;DHT22;65498;50.916;4.698;2023-04-16T14:12:53;21.90;52.40
76607;DHT22;65498;50.916;4.698;2023-04-16T14:15:21;21.80;52.40
76607;DHT22;65498;50.916;4.698;2023-04-16T14:17:49;21.90;52.20
76607;DHT22;65498;50.916;4.698;2023-04-16T14:20:17;21.90;52.30
76607;DHT22;65498;50.916;4.698;2023-04-16T14:22:44;21.80;52.30
76607;DHT22;65498;50.916;4.698;2023-04-16T14:25:12;21.80;52.70
76607;DHT22;65498;50.916;4.698;2023-04-16T14:27:40;21.80;52.90
76607;DHT22;65498;50.916;4.698;2023-04-16T14:30:08;21.70;53.20
76607;DHT22;65498;50.916;4.698;2023-04-16T14:32:36;21.70;53.40
76607;DHT22;65498;50.916;4.698;2023-04-16T14:35:04;21.70;53.50
76607;DHT22;65498;50.916;4.698;2023-04-16T14:37:32;21.70;53.60
76607;DHT22;65498;50.916;4.698;2023-04-16T14:40:01;21.70;53.30
76607;DHT22;65498;50.916;4.698;2023-04-16T14:42:34;21.70;53.50
76607;DHT22;65498;50.916;4.698;2023-04-16T14:45:03;21.60;53.40
76607;DHT22;65498;50.916;4.698;2023-04-16T14:47:34;21.60;52.90
76607;DHT22;65498;50.916;4.698;2023-04-16T14:50:03;21.60;52.40
76607;DHT22;65498;50.916;4.698;2023-04-16T14:52:31;21.60;52.10
76607;DHT22;65498;50.916;4.698;2023-04-16T14:54:59;21.60;51.90
76607;DHT22;65498;50.916;4.698;2023-04-16T14:57:26;21.60;51.60
76607;DHT22;65498;50.916;4.698;2023-04-16T14:59:54;21.60;51.30
76607;DHT22;65498;50.916;4.698;2023-04-16T15:02:22;21.50;51.10
76607;DHT22;65498;50.916;4.698;2023-04-16T15:04:49;21.50;50.80
76607;DHT22;65498;50.916;4.698;2023-04-16T15:07:17;21.50;50.60
76607;DHT22;65498;50.916;4.698;2023-04-16T15:09:44;21.50;50.40
76607;DHT22;65498;50.916;4.698;2023-04-16T15:12:12;21.50;50.20
76607;DHT22;65498;50.916;4.698;2023-04-16T15:14:39;21.60;50.30
76607;DHT22;65498;50.916;4.698;2023-04-16T15:17:08;21.50;50.00
76607;DHT22;65498;50.916;4.698;2023-04-16T15:19:36;21.50;49.80
76607;DHT22;65498;50.916;4.698;2023-04-16T15:22:03;21.50;49.80
76607;DHT22;65498;50.916;4.698;2023-04-16T15:24:31;21.50;49.60
76607;DHT22;65498;50.916;4.698;2023-04-16T15:26:58;21.40;49.00
76607;DHT22;65498;50.916;4.698;2023-04-16T15:29:27;21.40;48.90
76607;DHT22;65498;50.916;4.698;2023-04-16T15:31:55;21.40;49.10
76607;DHT22;65498;50.916;4.698;2023-04-16T15:34:22;21.40;49.10
76607;DHT22;65498;50.916;4.698;2023-04-16T15:36:50;21.50;49.30
76607;DHT22;65498;50.916;4.698;2023-04-16T15:39:18;21.50;49.20